Time;durP1;ratioP1;P1;durP2;ratioP2;P2;SDS_P1;SDS_P2;PMS_P1;PMS_P2;Temp;Humidity;BMP_temperature;BMP_pressure;BME280_temperature;BME280_humidity;BME280_pressure;Samples;Min_cycle;Max_cycle;Signal;HPM_P1;HPM_P2
2023/09/17 00:01:23;;;;;;;17.38;12.07;;;15.40;99.90;;;;;;4941291;29;20069;-83
2023/09/17 00:03:52;;;;;;;16.70;12.60;;;15.30;99.90;;;;;;4954380;28;20046;-81
2023/09/17 00:06:18;;;;;;;18.63;12.82;;;15.30;99.90;;;;;;4964077;28;20253;-81
2023/09/17 00:08:43;;;;;;;23.23;13.30;;;15.30;99.90;;;;;;4957944;28;20035;-83
2023/09/17 00:11:09;;;;;;;17.65;12.77;;;15.30;99.90;;;;;;4936914;29;20083;-83
2023/09/17 00:13:35;;;;;;;15.00;12.05;;;15.30;99.90;;;;;;4937266;29;20146;-82
2023/09/17 00:16:01;;;;;;;18.98;11.82;;;15.20;99.90;;;;;;4920586;29;20027;-83
2023/09/17 00:18:27;;;;;;;15.23;11.68;;;15.30;99.90;;;;;;4938765;29;20510;-82
2023/09/17 00:20:53;;;;;;;14.77;11.80;;;15.30;99.90;;;;;;4937122;29;20041;-83
2023/09/17 00:23:19;;;;;;;18.02;11.38;;;15.20;99.90;;;;;;4938771;29;20032;-82
2023/09/17 00:25:44;;;;;;;15.73;11.23;;;15.20;99.90;;;;;;4939518;29;20031;-83
2023/09/17 00:28:10;;;;;;;12.93;10.52;;;15.20;99.90;;;;;;4940048;29;20024;-82
2023/09/17 00:30:36;;;;;;;13.98;10.10;;;15.20;99.90;;;;;;4940412;29;20087;-83
2023/09/17 00:33:02;;;;;;;12.52;10.57;;;15.20;99.90;;;;;;4938329;29;20150;-82
2023/09/17 00:35:28;;;;;;;11.18;9.95;;;15.10;99.90;;;;;;4938867;29;20023;-82
2023/09/17 00:37:53;;;;;;;11.68;9.82;;;15.10;99.90;;;;;;4941395;29;20114;-82
2023/09/17 00:40:20;;;;;;;15.88;10.85;;;15.10;99.90;;;;;;4938724;29;20620;-83
2023/09/17 00:42:46;;;;;;;16.27;10.65;;;15.00;99.90;;;;;;4937581;29;20121;-82
2023/09/17 00:45:12;;;;;;;21.42;11.05;;;15.00;99.90;;;;;;4940689;29;20590;-82
2023/09/17 00:47:38;;;;;;;14.70;10.60;;;15.00;99.90;;;;;;4939400;29;20119;-82
2023/09/17 00:50:04;;;;;;;13.10;10.07;;;15.00;99.90;;;;;;4935875;29;20051;-82
2023/09/17 00:52:33;;;;;;;13.15;11.15;;;15.00;99.90;;;;;;4939827;29;20038;-82
2023/09/17 00:54:58;;;;;;;14.30;10.52;;;15.00;99.90;;;;;;4937725;29;20039;-82
2023/09/17 00:57:24;;;;;;;13.10;10.93;;;15.00;99.90;;;;;;4938725;29;20032;-83
2023/09/17 00:59:50;;;;;;;15.20;9.80;;;15.00;99.90;;;;;;4938785;29;20058;-83
2023/09/17 01:02:18;;;;;;;11.85;10.13;;;15.00;99.90;;;;;;4938784;29;20031;-82
2023/09/17 01:04:49;;;;;;;14.65;10.32;;;14.90;99.90;;;;;;4937704;29;20059;-83
2023/09/17 01:07:16;;;;;;;14.27;10.02;;;14.90;99.90;;;;;;4938850;29;20028;-82
2023/09/17 01:09:42;;;;;;;11.93;9.52;;;14.90;99.90;;;;;;4936298;29;20054;-82
2023/09/17 01:12:08;;;;;;;11.68;9.82;;;14.90;99.90;;;;;;4934091;29;20031;-83
2023/09/17 01:14:34;;;;;;;13.23;9.68;;;14.80;99.90;;;;;;4937830;29;20042;-82
2023/09/17 01:17:01;;;;;;;14.27;9.90;;;14.70;99.90;;;;;;4938296;29;20034;-83
2023/09/17 01:19:29;;;;;;;11.70;9.20;;;14.80;99.90;;;;;;4937354;28;20024;-82
2023/09/17 01:22:16;;;;;;;12.07;9.65;;;14.70;99.90;;;;;;4939337;29;20035;-82
2023/09/17 01:24:48;;;;;;;11.77;9.20;;;14.70;99.90;;;;;;4938284;29;21454;-83
2023/09/17 01:27:18;;;;;;;10.10;8.85;;;14.70;99.90;;;;;;4938983;29;20756;-82
2023/09/17 01:29:46;;;;;;;11.48;8.82;;;14.70;99.90;;;;;;4937362;29;20016;-82
2023/09/17 01:32:12;;;;;;;12.45;9.27;;;14.60;99.90;;;;;;4937956;29;20027;-83
2023/09/17 01:34:41;;;;;;;12.20;9.10;;;14.60;99.90;;;;;;4938462;29;20036;-82
2023/09/17 01:37:14;;;;;;;11.15;8.63;;;14.50;99.90;;;;;;4940190;29;20034;-83
2023/09/17 01:39:45;;;;;;;11.27;8.40;;;14.50;99.90;;;;;;4937209;29;20019;-82
2023/09/17 01:42:13;;;;;;;12.07;8.48;;;14.40;99.90;;;;;;4938385;29;20435;-82
2023/09/17 01:44:40;;;;;;;9.98;8.40;;;14.50;99.90;;;;;;4939932;29;20422;-82
2023/09/17 01:47:06;;;;;;;9.73;8.73;;;14.50;99.90;;;;;;4939977;29;20066;-82
2023/09/17 01:49:33;;;;;;;9.60;8.10;;;14.40;99.90;;;;;;4938901;29;20031;-83
2023/09/17 01:51:59;;;;;;;9.95;8.15;;;14.40;99.90;;;;;;4928110;29;20023;-82
2023/09/17 01:54:25;;;;;;;12.30;7.55;;;14.40;99.90;;;;;;4938266;29;20091;-82
2023/09/17 01:56:51;;;;;;;11.88;8.23;;;14.40;99.90;;;;;;4939145;29;20487;-82
2023/09/17 01:59:17;;;;;;;15.02;8.13;;;14.40;99.90;;;;;;4939679;29;20035;-83
2023/09/17 02:01:43;;;;;;;13.50;8.10;;;14.40;99.90;;;;;;4941198;29;20142;-83
2023/09/17 02:04:08;;;;;;;9.68;8.68;;;14.40;99.90;;;;;;4940802;29;20720;-82
2023/09/17 02:06:36;;;;;;;10.98;8.73;;;14.40;99.90;;;;;;4941784;29;20028;-82
2023/09/17 02:09:04;;;;;;;10.82;9.13;;;14.40;99.90;;;;;;4940056;29;20036;-82
2023/09/17 02:11:30;;;;;;;11.10;8.55;;;14.30;99.90;;;;;;4927813;29;20027;-82
2023/09/17 02:13:55;;;;;;;9.98;7.97;;;14.30;99.90;;;;;;4940370;29;20027;-82
2023/09/17 02:16:21;;;;;;;12.20;8.45;;;14.30;99.90;;;;;;4939260;29;20990;-82
2023/09/17 02:18:47;;;;;;;10.75;8.02;;;14.30;99.90;;;;;;4940519;29;20031;-82
2023/09/17 02:21:13;;;;;;;11.95;8.20;;;14.30;99.90;;;;;;4936647;29;20034;-82
2023/09/17 02:23:38;;;;;;;9.88;8.38;;;14.30;99.90;;;;;;4938131;29;20038;-83
2023/09/17 02:26:04;;;;;;;11.30;8.80;;;14.30;99.90;;;;;;4935641;29;20027;-82
2023/09/17 02:28:29;;;;;;;12.75;8.38;;;14.30;99.90;;;;;;4940925;29;20049;-82
2023/09/17 02:30:55;;;;;;;11.45;8.55;;;14.30;99.90;;;;;;4939185;28;20034;-82
2023/09/17 02:33:20;;;;;;;11.90;8.35;;;14.30;99.90;;;;;;4941537;29;20035;-82
2023/09/17 02:35:46;;;;;;;11.80;8.43;;;14.30;99.90;;;;;;4943085;29;20032;-82
2023/09/17 02:38:12;;;;;;;10.07;8.32;;;14.30;99.90;;;;;;4945924;29;20034;-82
2023/09/17 02:40:37;;;;;;;12.30;8.63;;;14.30;99.90;;;;;;4942460;29;20019;-82
2023/09/17 02:43:03;;;;;;;11.52;8.15;;;14.30;99.90;;;;;;4945151;29;20133;-82
2023/09/17 02:45:28;;;;;;;12.15;9.00;;;14.30;99.90;;;;;;4946556;29;20763;-82
2023/09/17 02:47:54;;;;;;;10.85;7.80;;;14.20;99.90;;;;;;4944880;29;20805;-82
2023/09/17 02:50:20;;;;;;;9.07;7.70;;;14.20;99.90;;;;;;4943427;29;20044;-82
2023/09/17 02:52:45;;;;;;;11.55;7.93;;;14.20;99.90;;;;;;4944781;29;20497;-82
2023/09/17 02:55:11;;;;;;;11.32;8.20;;;14.20;99.90;;;;;;4947478;29;20028;-82
2023/09/17 02:57:37;;;;;;;9.27;7.93;;;14.10;99.90;;;;;;4946321;29;20027;-82
2023/09/17 03:00:08;;;;;;;12.23;7.82;;;14.10;99.90;;;;;;4962156;28;20027;-81
2023/09/17 03:02:34;;;;;;;9.77;7.40;;;14.20;99.90;;;;;;4965690;28;20020;-80
2023/09/17 03:04:59;;;;;;;9.95;7.18;;;14.10;99.90;;;;;;4964348;28;20011;-82
2023/09/17 03:07:26;;;;;;;8.32;7.00;;;14.10;99.90;;;;;;4946206;29;20125;-82
2023/09/17 03:09:52;;;;;;;9.68;7.47;;;14.10;99.90;;;;;;4941761;29;20114;-82
2023/09/17 03:12:17;;;;;;;10.85;7.47;;;14.10;99.90;;;;;;4946372;29;20094;-82
2023/09/17 03:14:43;;;;;;;9.45;7.55;;;14.10;99.90;;;;;;4944795;29;20040;-82
2023/09/17 03:17:09;;;;;;;11.95;8.23;;;14.10;99.90;;;;;;4945668;29;20034;-81
2023/09/17 03:19:34;;;;;;;10.48;7.90;;;14.10;99.90;;;;;;4944491;29;20035;-82
2023/09/17 03:22:02;;;;;;;10.25;7.15;;;14.10;99.90;;;;;;4944185;29;20027;-82
2023/09/17 03:24:28;;;;;;;9.40;7.70;;;14.10;99.90;;;;;;4945991;29;20490;-82
2023/09/17 03:26:53;;;;;;;11.18;7.47;;;14.10;99.90;;;;;;4945070;29;20027;-81
2023/09/17 03:29:19;;;;;;;9.00;7.85;;;14.10;99.90;;;;;;4942106;29;21097;-81
2023/09/17 03:31:46;;;;;;;10.18;8.27;;;14.10;99.90;;;;;;4943783;29;20059;-82
2023/09/17 03:34:12;;;;;;;10.43;7.85;;;14.10;99.90;;;;;;4944952;29;20035;-82
2023/09/17 03:36:38;;;;;;;9.40;7.43;;;14.10;99.90;;;;;;4944362;29;20031;-82
2023/09/17 03:39:08;;;;;;;9.23;7.20;;;14.10;99.90;;;;;;4944061;29;20078;-82
2023/09/17 03:41:34;;;;;;;13.98;8.60;;;14.10;99.90;;;;;;4944209;29;20070;-82
2023/09/17 03:43:59;;;;;;;8.65;7.13;;;14.10;99.90;;;;;;4943371;28;20043;-81
2023/09/17 03:46:25;;;;;;;11.18;8.00;;;14.10;99.90;;;;;;4944991;29;20083;-81
2023/09/17 03:48:51;;;;;;;8.77;7.40;;;14.10;99.90;;;;;;4943219;29;20039;-82
2023/09/17 03:51:16;;;;;;;9.50;7.65;;;14.10;99.90;;;;;;4943166;29;20110;-82
2023/09/17 03:53:43;;;;;;;9.57;7.75;;;14.10;99.90;;;;;;4944819;29;20046;-82
2023/09/17 03:56:11;;;;;;;8.98;7.35;;;14.10;99.90;;;;;;4944838;29;20919;-81
2023/09/17 03:58:37;;;;;;;10.52;7.53;;;14.10;99.90;;;;;;4943865;29;20035;-82
2023/09/17 04:01:06;;;;;;;9.60;6.78;;;14.00;99.90;;;;;;4941919;29;20487;-81
2023/09/17 04:03:32;;;;;;;9.13;6.90;;;14.00;99.90;;;;;;4942820;29;20039;-82
2023/09/17 04:05:58;;;;;;;11.68;7.00;;;14.00;99.90;;;;;;4942052;29;20173;-82
2023/09/17 04:08:24;;;;;;;9.02;6.93;;;14.00;99.90;;;;;;4941454;29;20114;-82
2023/09/17 04:10:55;;;;;;;8.05;6.50;;;13.90;99.90;;;;;;4940899;29;20038;-81
2023/09/17 04:13:21;;;;;;;8.82;6.53;;;13.90;99.90;;;;;;4941976;29;20222;-82
2023/09/17 04:15:49;;;;;;;10.38;6.68;;;13.90;99.90;;;;;;4942471;29;20462;-81
2023/09/17 04:18:14;;;;;;;7.65;6.25;;;13.80;99.90;;;;;;4941557;29;20698;-82
2023/09/17 04:20:40;;;;;;;7.03;6.10;;;13.80;99.90;;;;;;4922713;29;20034;-82
2023/09/17 04:23:06;;;;;;;8.95;6.63;;;13.80;99.90;;;;;;4940356;29;20043;-82
2023/09/17 04:25:32;;;;;;;14.52;8.77;;;13.80;99.90;;;;;;4943009;29;20043;-82
2023/09/17 04:27:58;;;;;;;12.63;6.82;;;13.70;99.90;;;;;;4943721;29;20045;-81
2023/09/17 04:30:23;;;;;;;8.38;6.60;;;13.70;99.90;;;;;;4942763;29;20099;-81
2023/09/17 04:32:50;;;;;;;8.48;6.80;;;13.70;99.90;;;;;;4943159;29;20032;-82
2023/09/17 04:35:17;;;;;;;8.00;6.38;;;13.70;99.90;;;;;;4940702;29;20035;-82
2023/09/17 04:37:45;;;;;;;9.88;7.35;;;13.70;99.90;;;;;;4944975;29;20129;-82
2023/09/17 04:40:11;;;;;;;9.73;7.30;;;13.70;99.90;;;;;;4942636;29;20031;-82
2023/09/17 04:42:38;;;;;;;9.48;7.65;;;13.70;99.90;;;;;;4943636;29;20140;-82
2023/09/17 04:45:05;;;;;;;11.80;8.38;;;13.70;99.90;;;;;;4943264;29;20561;-81
2023/09/17 04:47:33;;;;;;;13.10;8.70;;;13.70;99.90;;;;;;4943445;29;20035;-82
2023/09/17 04:49:59;;;;;;;10.52;7.25;;;13.70;99.90;;;;;;4942394;29;20038;-82
2023/09/17 04:52:25;;;;;;;8.35;7.28;;;13.70;99.90;;;;;;4944955;29;20042;-82
2023/09/17 04:54:50;;;;;;;9.32;6.50;;;13.70;99.90;;;;;;4942115;29;20031;-82
2023/09/17 04:57:16;;;;;;;8.50;6.80;;;13.80;99.90;;;;;;4944036;28;20034;-82
2023/09/17 04:59:42;;;;;;;10.18;6.78;;;13.70;99.90;;;;;;4931079;29;20090;-82
2023/09/17 05:02:07;;;;;;;7.40;6.43;;;13.80;99.90;;;;;;4942265;29;20039;-82
2023/09/17 05:04:33;;;;;;;7.63;6.22;;;13.70;99.90;;;;;;4941596;29;20107;-82
2023/09/17 05:06:59;;;;;;;9.68;6.10;;;13.80;99.90;;;;;;4942428;29;20031;-82
2023/09/17 05:09:25;;;;;;;8.45;6.80;;;13.80;99.90;;;;;;4941319;29;20043;-82
2023/09/17 05:11:51;;;;;;;8.52;6.40;;;13.70;99.90;;;;;;4943018;29;20035;-82
2023/09/17 05:14:17;;;;;;;10.57;6.85;;;13.70;99.90;;;;;;4942522;29;20478;-82
2023/09/17 05:16:42;;;;;;;7.95;6.30;;;13.80;99.90;;;;;;4941370;29;20043;-82
2023/09/17 05:19:08;;;;;;;14.93;7.63;;;13.80;99.90;;;;;;4941304;29;20031;-82
2023/09/17 05:21:33;;;;;;;22.60;12.20;;;13.80;99.90;;;;;;4941750;29;20027;-82
2023/09/17 05:23:59;;;;;;;28.85;16.65;;;13.90;99.90;;;;;;4941478;29;20459;-82
2023/09/17 05:26:25;;;;;;;15.07;10.98;;;13.90;99.90;;;;;;4942358;29;20039;-82
2023/09/17 05:28:51;;;;;;;10.73;7.43;;;13.90;99.90;;;;;;4923857;29;20020;-82
2023/09/17 05:31:16;;;;;;;9.93;6.70;;;14.00;99.90;;;;;;4941375;29;20717;-82
2023/09/17 05:33:42;;;;;;;11.52;7.20;;;14.10;99.90;;;;;;4942768;29;20031;-82
2023/09/17 05:36:07;;;;;;;11.40;7.53;;;14.20;99.90;;;;;;4942602;29;20024;-82
2023/09/17 05:38:33;;;;;;;11.32;7.30;;;14.30;99.90;;;;;;4942934;29;20040;-82
2023/09/17 05:40:58;;;;;;;9.50;6.97;;;14.30;99.90;;;;;;4926164;29;20074;-83
2023/09/17 05:43:24;;;;;;;11.70;6.90;;;14.40;99.90;;;;;;4944263;29;20106;-82
2023/09/17 05:45:56;;;;;;;9.25;6.65;;;14.50;99.90;;;;;;4943713;29;20031;-82
2023/09/17 05:48:22;;;;;;;11.32;6.38;;;14.60;99.90;;;;;;4942909;29;20043;-82
2023/09/17 05:50:50;;;;;;;8.52;6.10;;;14.80;99.90;;;;;;4943240;29;20039;-82
2023/09/17 05:53:15;;;;;;;8.98;6.32;;;14.90;99.90;;;;;;4946233;29;20042;-82
2023/09/17 05:55:41;;;;;;;7.45;5.88;;;15.00;99.90;;;;;;4961397;28;20030;-81
2023/09/17 05:58:07;;;;;;;6.85;6.05;;;15.10;99.90;;;;;;4962597;28;20087;-80
2023/09/17 06:00:33;;;;;;;7.35;6.07;;;15.20;99.90;;;;;;4948016;28;20045;-82
2023/09/17 06:02:58;;;;;;;13.55;6.25;;;15.20;99.90;;;;;;4940899;29;20070;-82
2023/09/17 06:05:24;;;;;;;8.45;5.70;;;15.30;99.90;;;;;;4940834;29;20079;-82
2023/09/17 06:07:50;;;;;;;6.57;5.90;;;15.40;99.90;;;;;;4943344;29;20048;-82
2023/09/17 06:10:15;;;;;;;8.63;6.72;;;15.40;99.90;;;;;;4941099;29;20040;-82
2023/09/17 06:12:42;;;;;;;9.13;6.38;;;15.40;99.90;;;;;;4943426;29;20047;-82
2023/09/17 06:15:08;;;;;;;7.57;6.72;;;15.50;99.90;;;;;;4941686;29;20039;-82
2023/09/17 06:17:33;;;;;;;9.07;5.88;;;15.60;99.90;;;;;;4941927;29;20388;-81
2023/09/17 06:19:59;;;;;;;7.97;6.18;;;15.60;99.90;;;;;;4941628;29;20097;-82
2023/09/17 06:22:25;;;;;;;8.07;5.78;;;15.70;99.90;;;;;;4941285;29;20134;-82
2023/09/17 06:24:51;;;;;;;7.57;6.05;;;15.80;99.90;;;;;;4940566;29;20039;-82
2023/09/17 06:27:17;;;;;;;7.90;6.25;;;15.80;99.90;;;;;;4940507;29;20046;-82
2023/09/17 06:29:42;;;;;;;8.95;5.78;;;15.90;99.90;;;;;;4935954;28;20027;-83
2023/09/17 06:32:08;;;;;;;11.90;6.18;;;16.00;99.90;;;;;;4937683;28;20122;-83
2023/09/17 06:34:35;;;;;;;6.28;5.57;;;16.00;99.90;;;;;;4937166;28;20047;-83
2023/09/17 06:37:01;;;;;;;7.38;5.90;;;16.10;99.90;;;;;;4937010;29;20043;-84
2023/09/17 06:39:27;;;;;;;6.43;5.38;;;16.20;99.90;;;;;;4936236;29;20230;-83
2023/09/17 06:41:53;;;;;;;7.75;5.45;;;16.20;99.90;;;;;;4937936;29;20567;-83
2023/09/17 06:44:18;;;;;;;6.72;5.10;;;16.30;99.90;;;;;;4937526;29;20114;-83
2023/09/17 06:46:44;;;;;;;7.78;5.45;;;16.40;99.90;;;;;;4946121;29;20106;-83
2023/09/17 06:49:10;;;;;;;6.80;5.60;;;16.50;99.90;;;;;;4926315;29;20772;-83
2023/09/17 06:51:36;;;;;;;8.02;5.10;;;16.60;99.90;;;;;;4943788;29;20032;-84
2023/09/17 06:54:03;;;;;;;5.63;5.03;;;16.60;99.90;;;;;;4939071;29;20058;-83
2023/09/17 06:56:29;;;;;;;8.13;5.70;;;16.70;99.90;;;;;;4938515;28;20023;-83
2023/09/17 06:58:55;;;;;;;6.00;5.25;;;16.80;99.90;;;;;;4936697;29;20166;-84
2023/09/17 07:01:20;;;;;;;10.27;5.20;;;16.90;99.90;;;;;;4935827;29;20035;-84
2023/09/17 07:03:46;;;;;;;7.38;5.35;;;17.00;99.90;;;;;;4936783;29;20506;-83
2023/09/17 07:06:12;;;;;;;6.00;4.43;;;17.00;99.90;;;;;;4937038;29;20118;-83
2023/09/17 07:08:38;;;;;;;6.25;4.82;;;17.10;99.90;;;;;;4937899;29;21002;-83
2023/09/17 07:11:04;;;;;;;5.85;5.10;;;17.10;99.90;;;;;;4933989;29;20086;-83
2023/09/17 07:13:30;;;;;;;5.40;4.38;;;17.20;99.90;;;;;;4936082;28;20034;-82
2023/09/17 07:15:55;;;;;;;5.10;4.50;;;17.30;99.90;;;;;;4934958;28;20046;-83
2023/09/17 07:18:21;;;;;;;8.07;4.97;;;17.50;99.90;;;;;;4936983;28;20028;-83
2023/09/17 07:20:49;;;;;;;7.65;4.75;;;17.60;99.90;;;;;;4938025;28;20051;-83
2023/09/17 07:23:15;;;;;;;5.35;4.47;;;17.70;99.90;;;;;;4935193;28;20031;-83
2023/09/17 07:25:41;;;;;;;6.32;4.68;;;17.80;99.90;;;;;;4936197;28;20410;-83
2023/09/17 07:28:07;;;;;;;5.63;4.65;;;17.90;99.90;;;;;;4935222;29;20126;-83
2023/09/17 07:30:37;;;;;;;7.53;4.93;;;18.00;99.90;;;;;;4936110;29;20087;-83
2023/09/17 07:33:04;;;;;;;4.85;3.95;;;18.20;99.90;;;;;;4936462;29;20054;-83
2023/09/17 07:35:31;;;;;;;5.05;3.90;;;18.30;99.90;;;;;;4934733;28;20063;-84
2023/09/17 07:37:56;;;;;;;4.55;3.85;;;18.40;99.90;;;;;;4935846;29;20037;-83
2023/09/17 07:40:22;;;;;;;6.13;3.95;;;18.60;99.90;;;;;;4935593;29;20027;-84
2023/09/17 07:42:47;;;;;;;4.78;3.97;;;18.70;99.90;;;;;;4935279;29;20039;-84
2023/09/17 07:45:13;;;;;;;5.80;4.15;;;18.80;99.90;;;;;;4935163;29;20039;-84
2023/09/17 07:47:39;;;;;;;5.45;3.78;;;18.90;99.90;;;;;;4935281;28;20031;-83
2023/09/17 07:50:05;;;;;;;4.15;3.75;;;19.00;99.90;;;;;;4932988;29;20550;-83
2023/09/17 07:52:32;;;;;;;4.28;3.55;;;19.10;99.90;;;;;;4933876;29;20027;-84
2023/09/17 07:54:57;;;;;;;5.53;3.70;;;19.30;99.90;;;;;;4936053;29;20032;-84
2023/09/17 07:57:23;;;;;;;4.95;3.88;;;19.30;99.90;;;;;;4934872;28;20969;-83
2023/09/17 07:59:49;;;;;;;5.35;3.65;;;19.50;99.90;;;;;;4937803;28;20594;-84
2023/09/17 08:02:14;;;;;;;5.07;3.53;;;19.60;99.90;;;;;;4935589;28;20039;-84
2023/09/17 08:04:40;;;;;;;4.80;3.15;;;19.70;99.90;;;;;;4934575;28;20049;-84
2023/09/17 08:07:06;;;;;;;4.90;3.35;;;19.80;99.90;;;;;;4935840;29;20059;-84
2023/09/17 08:09:31;;;;;;;6.38;3.30;;;20.00;99.90;;;;;;4933180;29;20028;-83
2023/09/17 08:11:57;;;;;;;5.20;3.10;;;20.20;99.90;;;;;;4934255;29;20054;-84
2023/09/17 08:14:22;;;;;;;3.72;2.80;;;20.30;99.90;;;;;;4935611;29;20063;-85
2023/09/17 08:16:51;;;;;;;5.10;3.55;;;20.50;99.90;;;;;;4932899;29;20564;-84
2023/09/17 08:19:17;;;;;;;5.43;3.20;;;20.70;99.90;;;;;;4933225;28;20057;-83
2023/09/17 08:21:43;;;;;;;5.80;2.80;;;20.80;99.90;;;;;;4934934;28;20046;-83
2023/09/17 08:24:09;;;;;;;4.10;3.05;;;21.00;99.90;;;;;;4932822;28;20046;-84
2023/09/17 08:26:35;;;;;;;4.35;2.90;;;21.20;99.90;;;;;;4934730;28;20039;-83
2023/09/17 08:29:01;;;;;;;5.45;2.75;;;21.30;99.90;;;;;;4934452;28;20028;-84
2023/09/17 08:31:28;;;;;;;4.20;3.20;;;21.40;99.90;;;;;;4931592;29;20035;-84
2023/09/17 08:33:54;;;;;;;4.75;3.25;;;21.60;99.90;;;;;;4934655;29;20032;-84
2023/09/17 08:36:21;;;;;;;5.63;3.35;;;21.70;99.90;;;;;;4933873;29;20378;-83
2023/09/17 08:38:49;;;;;;;3.65;2.80;;;21.80;99.90;;;;;;4936957;29;20035;-84
2023/09/17 08:41:15;;;;;;;5.85;2.97;;;21.90;99.90;;;;;;4933769;29;20513;-84
2023/09/17 08:43:42;;;;;;;3.50;3.10;;;21.90;99.90;;;;;;4934194;29;20040;-83
2023/09/17 08:46:07;;;;;;;4.93;3.03;;;21.90;99.90;;;;;;4936381;29;20046;-84
2023/09/17 08:48:33;;;;;;;4.20;2.92;;;21.90;99.90;;;;;;4940304;29;20219;-83
2023/09/17 08:51:00;;;;;;;5.93;3.40;;;22.00;99.90;;;;;;4951627;28;20035;-83
2023/09/17 08:53:31;;;;;;;5.60;2.97;;;22.00;99.90;;;;;;4964921;28;20080;-82
2023/09/17 08:55:58;;;;;;;5.80;3.13;;;22.00;99.90;;;;;;4957637;28;20498;-84
2023/09/17 08:58:36;;;;;;;5.50;2.90;;;22.00;99.90;;;;;;4934602;29;20039;-84
2023/09/17 09:01:03;;;;;;;5.97;3.05;;;22.20;99.90;;;;;;4933968;29;20035;-84
2023/09/17 09:03:33;;;;;;;4.03;2.90;;;22.40;99.90;;;;;;4934146;29;20046;-84
2023/09/17 09:06:00;;;;;;;5.75;4.20;;;22.40;99.90;;;;;;4933342;29;21370;-84
2023/09/17 09:08:27;;;;;;;4.68;3.30;;;22.50;99.90;;;;;;4935503;29;20086;-84
2023/09/17 09:10:53;;;;;;;6.03;3.22;;;22.70;99.90;;;;;;4934165;29;20857;-84
2023/09/17 09:13:20;;;;;;;6.63;3.08;;;23.00;99.90;;;;;;4934279;29;20114;-84
2023/09/17 09:15:47;;;;;;;3.95;2.80;;;23.10;99.90;;;;;;4932654;29;20549;-85
2023/09/17 09:18:13;;;;;;;4.13;2.78;;;23.30;99.90;;;;;;4915799;29;20039;-84
2023/09/17 09:20:40;;;;;;;5.97;2.83;;;23.50;99.90;;;;;;4932957;29;20039;-84
2023/09/17 09:23:06;;;;;;;4.43;2.90;;;23.60;99.90;;;;;;4934132;29;20067;-84
2023/09/17 09:25:32;;;;;;;7.15;3.28;;;23.70;99.90;;;;;;4933349;29;20162;-84
2023/09/17 09:28:04;;;;;;;4.65;2.85;;;23.70;99.90;;;;;;4933750;29;20576;-84
2023/09/17 09:30:30;;;;;;;6.63;3.85;;;23.60;99.90;;;;;;4932965;29;20050;-84
2023/09/17 09:32:56;;;;;;;3.30;2.60;;;23.60;99.90;;;;;;4934539;29;20619;-84
2023/09/17 09:35:23;;;;;;;5.22;3.20;;;23.60;99.90;;;;;;4932463;29;20122;-83
2023/09/17 09:37:50;;;;;;;4.47;3.40;;;23.60;99.90;;;;;;4934539;29;20031;-84
2023/09/17 09:40:16;;;;;;;5.97;3.65;;;23.80;99.90;;;;;;4931685;29;20040;-84
2023/09/17 09:42:42;;;;;;;4.95;3.10;;;24.00;99.90;;;;;;4933236;29;20032;-83
2023/09/17 09:45:17;;;;;;;4.50;3.00;;;24.20;99.90;;;;;;4934378;29;20031;-83
2023/09/17 09:47:48;;;;;;;4.53;3.40;;;24.70;99.90;;;;;;4934347;29;20499;-81
2023/09/17 09:50:27;;;;;;;5.90;3.03;;;25.10;99.90;;;;;;4917623;29;20268;-82
2023/09/17 09:52:54;;;;;;;3.72;2.78;;;25.10;99.90;;;;;;4934497;29;20036;-83
2023/09/17 09:55:23;;;;;;;4.57;3.13;;;25.20;99.90;;;;;;4933143;29;20057;-82
2023/09/17 09:57:49;;;;;;;5.10;2.88;;;25.30;99.90;;;;;;4934473;29;20039;-82
2023/09/17 10:00:15;;;;;;;4.22;3.08;;;25.50;99.90;;;;;;4933384;29;20107;-82
2023/09/17 10:02:43;;;;;;;3.47;2.85;;;25.70;99.90;;;;;;4931976;29;20066;-82
2023/09/17 10:05:12;;;;;;;5.20;3.03;;;26.00;99.90;;;;;;4933635;29;20032;-83
2023/09/17 10:07:38;;;;;;;3.50;2.80;;;26.50;99.90;;;;;;4933737;29;20036;-82
2023/09/17 10:10:05;;;;;;;5.03;3.28;;;26.60;99.90;;;;;;4932708;29;20050;-83
2023/09/17 10:12:31;;;;;;;4.38;3.03;;;26.60;99.90;;;;;;4934773;29;21370;-83
2023/09/17 10:14:56;;;;;;;4.43;2.83;;;26.70;99.90;;;;;;4933718;29;20043;-82
2023/09/17 10:17:22;;;;;;;3.13;2.70;;;26.80;99.90;;;;;;4932684;29;20102;-83
2023/09/17 10:19:49;;;;;;;5.22;3.00;;;26.80;99.90;;;;;;4932699;29;20142;-82
2023/09/17 10:22:15;;;;;;;5.18;2.67;;;26.90;99.90;;;;;;4933292;29;20098;-82
2023/09/17 10:24:42;;;;;;;4.22;3.13;;;27.10;99.90;;;;;;4933456;29;20028;-82
2023/09/17 10:27:08;;;;;;;4.85;3.00;;;27.30;99.90;;;;;;4934383;29;20028;-82
2023/09/17 10:29:38;;;;;;;4.25;2.50;;;27.30;99.90;;;;;;4931819;29;20027;-82
2023/09/17 10:32:04;;;;;;;4.35;2.88;;;27.40;99.90;;;;;;4935870;29;20110;-82
2023/09/17 10:34:35;;;;;;;2.88;2.55;;;27.60;99.90;;;;;;4937226;29;20046;-82
2023/09/17 10:37:03;;;;;;;2.85;2.50;;;27.80;99.90;;;;;;4934578;29;20087;-82
2023/09/17 10:39:30;;;;;;;4.47;2.63;;;27.80;99.90;;;;;;4935240;29;20123;-82
2023/09/17 10:41:57;;;;;;;4.97;2.70;;;28.30;99.90;;;;;;4931078;28;20039;-82
2023/09/17 10:44:25;;;;;;;3.63;2.45;;;28.30;99.90;;;;;;4932641;28;20417;-82
2023/09/17 10:46:53;;;;;;;2.85;2.55;;;28.40;99.90;;;;;;4933222;29;20045;-83
2023/09/17 10:49:20;;;;;;;3.50;2.30;;;28.40;99.90;;;;;;4931969;29;21529;-82
2023/09/17 10:51:47;;;;;;;3.00;2.70;;;28.50;99.90;;;;;;4933639;29;20067;-83
2023/09/17 10:54:14;;;;;;;3.13;2.83;;;28.60;99.90;;;;;;4936747;29;20039;-83
2023/09/17 10:56:45;;;;;;;3.25;2.47;;;28.70;99.90;;;;;;4937108;29;20097;-82
2023/09/17 10:59:14;;;;;;;5.28;2.63;;;28.60;99.90;;;;;;4937306;29;20094;-82
2023/09/17 11:01:41;;;;;;;3.15;2.70;;;28.40;99.90;;;;;;4935875;29;20038;-82
2023/09/17 11:04:16;;;;;;;2.95;2.40;;;28.20;99.90;;;;;;4935806;29;20047;-82
2023/09/17 11:06:44;;;;;;;4.20;2.55;;;28.20;99.90;;;;;;4935281;29;20490;-82
2023/09/17 11:09:11;;;;;;;3.85;2.58;;;28.30;99.90;;;;;;4934871;29;20043;-82
2023/09/17 11:11:37;;;;;;;4.32;2.60;;;28.40;99.90;;;;;;4935430;29;20422;-82
2023/09/17 11:14:04;;;;;;;4.80;2.90;;;28.40;99.90;;;;;;4934775;29;20039;-82
2023/09/17 11:16:32;;;;;;;3.38;2.65;;;28.30;99.90;;;;;;4935636;29;20031;-82
2023/09/17 11:19:15;;;;;;;5.85;3.83;;;28.30;99.90;;;;;;4936889;29;20062;-83
2023/09/17 11:21:43;;;;;;;5.75;3.47;;;28.40;99.90;;;;;;4935436;29;20035;-83
2023/09/17 11:24:13;;;;;;;4.25;3.15;;;28.60;99.90;;;;;;4936330;29;21352;-82
2023/09/17 11:26:44;;;;;;;5.22;2.42;;;28.70;99.90;;;;;;4936217;29;20114;-82
2023/09/17 11:29:11;;;;;;;3.35;2.60;;;29.10;99.90;;;;;;4921041;29;20689;-83
2023/09/17 11:32:00;;;;;;;3.53;2.40;;;29.20;99.90;;;;;;4935824;29;20054;-83
2023/09/17 11:34:26;;;;;;;4.78;2.10;;;29.10;99.90;;;;;;4935002;29;20058;-83
2023/09/17 11:36:52;;;;;;;4.65;2.55;;;29.40;99.90;;;;;;4935542;29;20089;-83
2023/09/17 11:39:21;;;;;;;3.55;2.20;;;29.50;99.90;;;;;;4935319;29;20221;-77
2023/09/17 11:41:52;;;;;;;6.60;2.80;;;29.60;99.90;;;;;;4933283;28;20039;-75
2023/09/17 11:44:21;;;;;;;3.10;2.22;;;29.30;99.90;;;;;;4936242;28;20078;-83
2023/09/17 11:46:47;;;;;;;4.40;2.17;;;29.50;99.90;;;;;;4940042;28;20097;-84
2023/09/17 11:49:13;;;;;;;2.65;2.03;;;29.70;99.90;;;;;;4950077;28;20058;-82
2023/09/17 11:51:43;;;;;;;3.47;1.98;;;29.60;99.90;;;;;;4963238;28;20083;-81
2023/09/17 11:54:16;;;;;;;2.55;1.98;;;29.50;99.90;;;;;;4957204;28;20042;-84
2023/09/17 11:56:59;;;;;;;3.63;2.38;;;29.40;99.90;;;;;;4936227;29;20038;-83
2023/09/17 11:59:26;;;;;;;3.45;2.00;;;29.30;99.90;;;;;;4935252;29;20028;-83
2023/09/17 12:01:54;;;;;;;4.38;2.05;;;29.30;99.90;;;;;;4936335;29;20043;-83
2023/09/17 12:04:32;;;;;;;4.10;2.20;;;29.40;99.90;;;;;;4933856;28;20573;-84
2023/09/17 12:06:58;;;;;;;4.32;2.10;;;29.40;99.90;;;;;;4934538;29;20032;-83
2023/09/17 12:11:56;;;;;;;3.40;2.22;;;29.40;99.90;;;;;;4932136;29;20261;-83
2023/09/17 12:14:23;;;;;;;2.72;2.13;;;29.80;99.90;;;;;;4915914;29;20047;-83
2023/09/17 12:16:51;;;;;;;2.20;1.85;;;30.00;99.90;;;;;;4933704;29;20070;-84
2023/09/17 12:19:17;;;;;;;2.63;1.98;;;30.20;99.90;;;;;;4933890;29;21547;-84
2023/09/17 12:21:46;;;;;;;4.10;2.25;;;30.10;99.90;;;;;;4933285;29;20035;-83
2023/09/17 12:24:25;;;;;;;2.80;2.20;;;29.90;99.90;;;;;;4915614;29;20038;-83
2023/09/17 12:27:24;;;;;;;3.58;2.40;;;29.80;99.90;;;;;;4933324;29;20043;-83
2023/09/17 12:29:51;;;;;;;3.00;2.20;;;29.70;99.90;;;;;;4931759;29;20043;-83
2023/09/17 12:32:19;;;;;;;2.63;2.25;;;29.50;99.90;;;;;;4933145;29;20590;-83
2023/09/17 12:34:48;;;;;;;2.97;2.15;;;29.40;99.90;;;;;;4932844;29;20035;-83
2023/09/17 12:37:14;;;;;;;3.20;2.25;;;29.30;99.90;;;;;;4932724;29;20594;-83
2023/09/17 12:39:43;;;;;;;4.47;2.38;;;29.20;99.90;;;;;;4931782;29;20039;-82
2023/09/17 12:42:08;;;;;;;5.10;2.83;;;29.10;99.90;;;;;;4933232;29;20107;-83
2023/09/17 12:44:35;;;;;;;2.55;2.20;;;29.00;99.90;;;;;;4933306;29;20043;-83